Time;durP1;ratioP1;P1;durP2;ratioP2;P2;SDS_P1;SDS_P2;PMS_P1;PMS_P2;Temp;Humidity;BMP_temperature;BMP_pressure;BME280_temperature;BME280_humidity;BME280_pressure;Samples;Min_cycle;Max_cycle;Signal;HPM_P1;HPM_P2
2022/03/03 00:01:43;;;;;;;0.00;0.00;;;1.30;99.90;;;;;;5060258;28;20048;-61
2022/03/03 00:04:08;;;;;;;0.00;0.00;;;1.30;99.90;;;;;;5058785;28;20036;-63
2022/03/03 00:06:35;;;;;;;0.00;0.00;;;1.30;99.90;;;;;;5060823;28;20052;-60
2022/03/03 00:09:02;;;;;;;0.00;0.00;;;1.20;99.90;;;;;;5058388;28;20135;-60
2022/03/03 00:11:28;;;;;;;0.20;0.20;;;1.20;99.90;;;;;;5060471;28;21023;-60
2022/03/03 00:13:54;;;;;;;0.00;0.00;;;1.10;99.90;;;;;;5059960;28;20309;-60
2022/03/03 00:16:19;;;;;;;0.00;0.00;;;1.10;99.90;;;;;;5060389;28;20033;-60
2022/03/03 00:18:45;;;;;;;0.00;0.00;;;1.00;99.90;;;;;;5059577;28;20098;-60
2022/03/03 00:21:10;;;;;;;0.00;0.00;;;1.00;99.90;;;;;;5059327;28;20404;-61
2022/03/03 00:23:36;;;;;;;0.00;0.00;;;0.90;99.90;;;;;;5059512;28;20071;-61
2022/03/03 00:26:02;;;;;;;0.00;0.00;;;1.00;99.90;;;;;;5058412;28;20052;-60
2022/03/03 00:28:27;;;;;;;0.00;0.00;;;0.90;99.90;;;;;;5058022;28;20514;-60
2022/03/03 00:30:53;;;;;;;0.00;0.00;;;0.90;99.90;;;;;;5059019;28;20664;-60
2022/03/03 00:33:19;;;;;;;0.00;0.00;;;1.00;99.90;;;;;;5058689;28;20052;-60
2022/03/03 00:35:45;;;;;;;0.00;0.00;;;0.90;99.90;;;;;;5057509;28;20048;-60
2022/03/03 00:38:11;;;;;;;0.00;0.00;;;2.10;99.90;;;;;;5059933;28;20036;-61
2022/03/03 00:40:37;;;;;;;0.00;0.00;;;1.00;99.90;;;;;;5059839;28;20086;-60
2022/03/03 00:43:06;;;;;;;0.00;0.00;;;0.90;99.90;;;;;;5059719;28;20471;-60
2022/03/03 00:45:33;;;;;;;0.00;0.00;;;0.90;99.90;;;;;;5060476;28;20055;-60
2022/03/03 00:48:00;;;;;;;0.00;0.00;;;0.70;99.90;;;;;;5059414;28;20041;-60
2022/03/03 00:50:26;;;;;;;0.00;0.00;;;0.80;99.90;;;;;;5059122;28;20048;-60
2022/03/03 00:52:51;;;;;;;0.00;0.00;;;0.70;99.90;;;;;;5059642;28;20682;-60
2022/03/03 00:55:17;;;;;;;0.00;0.00;;;0.70;99.90;;;;;;5058942;28;20036;-60
2022/03/03 00:57:42;;;;;;;0.00;0.00;;;0.80;99.90;;;;;;5041418;28;20076;-61
2022/03/03 01:00:09;;;;;;;0.00;0.00;;;0.70;99.90;;;;;;5059700;28;20053;-60
2022/03/03 01:02:35;;;;;;;0.00;0.00;;;0.70;99.90;;;;;;5058732;28;20040;-60
2022/03/03 01:05:01;;;;;;;0.00;0.00;;;0.80;99.90;;;;;;5058624;28;20624;-60
2022/03/03 01:07:27;;;;;;;0.00;0.00;;;0.90;99.90;;;;;;5061902;28;20049;-60
2022/03/03 01:09:53;;;;;;;0.00;0.00;;;0.90;99.90;;;;;;5062477;28;20052;-60
2022/03/03 01:12:19;;;;;;;0.00;0.00;;;0.90;99.90;;;;;;5063679;28;20086;-60
2022/03/03 01:14:44;;;;;;;0.00;0.00;;;0.80;99.90;;;;;;5063244;28;20123;-60
2022/03/03 01:17:10;;;;;;;0.00;0.00;;;0.80;99.90;;;;;;5063663;28;20613;-61
2022/03/03 01:19:36;;;;;;;0.00;0.00;;;0.90;99.90;;;;;;5062672;28;20070;-60
2022/03/03 01:22:02;;;;;;;0.00;0.00;;;0.80;99.90;;;;;;5063378;28;20965;-61
2022/03/03 01:24:28;;;;;;;0.00;0.00;;;0.80;99.90;;;;;;5062146;28;20124;-60
2022/03/03 01:26:53;;;;;;;0.00;0.00;;;0.90;99.90;;;;;;5062361;28;20555;-60
2022/03/03 01:29:19;;;;;;;0.00;0.00;;;0.80;99.90;;;;;;5062677;28;20055;-60
2022/03/03 01:31:45;;;;;;;0.00;0.00;;;0.80;99.90;;;;;;5062957;28;20257;-60
2022/03/03 01:34:12;;;;;;;0.00;0.00;;;0.80;99.90;;;;;;5062730;28;20047;-60
2022/03/03 01:36:37;;;;;;;0.00;0.00;;;0.70;99.90;;;;;;5063657;28;20070;-60
2022/03/03 01:39:05;;;;;;;0.00;0.00;;;0.80;99.90;;;;;;5062108;28;20117;-60
2022/03/03 01:41:31;;;;;;;0.00;0.00;;;0.70;99.90;;;;;;5063138;28;20041;-60
2022/03/03 01:43:57;;;;;;;0.00;0.00;;;0.70;99.90;;;;;;5063080;28;20040;-60
2022/03/03 01:46:23;;;;;;;0.00;0.00;;;0.70;99.90;;;;;;5062968;28;20048;-62
2022/03/03 01:48:48;;;;;;;0.00;0.00;;;0.70;99.90;;;;;;5061606;28;20045;-61
2022/03/03 01:51:14;;;;;;;0.00;0.00;;;0.80;99.90;;;;;;5063302;28;20425;-60
2022/03/03 01:53:40;;;;;;;0.00;0.00;;;0.70;99.90;;;;;;5062949;28;20040;-60
2022/03/03 01:56:06;;;;;;;0.00;0.00;;;0.70;99.90;;;;;;5063125;28;20126;-60
2022/03/03 01:58:32;;;;;;;0.00;0.00;;;0.70;99.90;;;;;;5062710;28;20052;-60
2022/03/03 02:00:58;;;;;;;0.00;0.00;;;0.70;99.90;;;;;;5061830;28;20052;-61
2022/03/03 02:03:24;;;;;;;0.00;0.00;;;0.70;99.90;;;;;;5062682;28;20048;-60
2022/03/03 02:05:49;;;;;;;0.00;0.00;;;0.70;99.90;;;;;;5061562;28;20733;-60
2022/03/03 02:08:15;;;;;;;0.00;0.00;;;0.70;99.90;;;;;;5061680;28;20052;-60
2022/03/03 02:10:41;;;;;;;0.00;0.00;;;0.60;99.90;;;;;;5061869;28;20057;-62
2022/03/03 02:13:08;;;;;;;0.00;0.00;;;0.60;99.90;;;;;;5063272;28;20558;-60
2022/03/03 02:15:33;;;;;;;0.00;0.00;;;0.60;99.90;;;;;;5059911;28;20155;-60
2022/03/03 02:18:00;;;;;;;0.00;0.00;;;0.50;99.90;;;;;;5042005;28;20135;-60
2022/03/03 02:20:30;;;;;;;0.00;0.00;;;0.60;99.90;;;;;;5039717;28;20144;-60
2022/03/03 02:22:58;;;;;;;0.00;0.00;;;0.50;99.90;;;;;;5042122;28;20045;-60
2022/03/03 02:25:25;;;;;;;0.00;0.00;;;0.60;99.90;;;;;;5042533;28;20110;-60
2022/03/03 02:27:51;;;;;;;0.00;0.00;;;0.60;99.90;;;;;;5060042;28;20402;-60
2022/03/03 02:30:17;;;;;;;0.40;0.20;;;0.50;99.90;;;;;;5078315;28;20051;-61
2022/03/03 02:32:44;;;;;;;0.00;0.00;;;0.50;99.90;;;;;;5081165;28;20044;-60
2022/03/03 02:35:10;;;;;;;0.00;0.00;;;0.50;99.90;;;;;;5081786;28;20040;-62
2022/03/03 02:37:39;;;;;;;0.00;0.00;;;0.40;99.90;;;;;;5064398;28;20040;-60
2022/03/03 02:40:10;;;;;;;0.00;0.00;;;0.30;99.90;;;;;;5082112;28;20044;-60
2022/03/03 02:42:36;;;;;;;0.00;0.00;;;0.30;99.90;;;;;;5081342;28;20052;-60
2022/03/03 02:45:04;;;;;;;0.00;0.00;;;0.30;99.90;;;;;;5081581;28;20473;-60
2022/03/03 02:47:29;;;;;;;0.00;0.00;;;0.30;99.90;;;;;;5081366;28;20040;-60
2022/03/03 02:49:55;;;;;;;0.00;0.00;;;0.20;99.90;;;;;;5081101;28;20047;-60
2022/03/03 02:52:21;;;;;;;0.00;0.00;;;0.20;99.90;;;;;;5082135;28;20558;-60
2022/03/03 02:54:46;;;;;;;0.00;0.00;;;0.20;99.90;;;;;;5080325;28;20655;-61
2022/03/03 02:59:56;;;;;;;0.00;0.00;;;0.20;99.90;;;;;;5081312;28;20044;-60
2022/03/03 03:02:22;;;;;;;0.00;0.00;;;0.20;99.90;;;;;;5082115;28;20054;-60
2022/03/03 03:04:47;;;;;;;0.00;0.00;;;0.30;99.90;;;;;;5080104;28;20036;-60
2022/03/03 03:07:13;;;;;;;0.00;0.00;;;0.30;99.90;;;;;;5080863;28;20055;-60
2022/03/03 03:09:38;;;;;;;0.00;0.00;;;0.40;99.90;;;;;;5080669;28;20177;-60
2022/03/03 03:12:05;;;;;;;0.00;0.00;;;0.40;99.90;;;;;;5080021;28;20109;-60
2022/03/03 03:14:30;;;;;;;0.00;0.00;;;0.40;99.90;;;;;;5081197;28;20140;-60
2022/03/03 03:16:56;;;;;;;0.00;0.00;;;0.30;99.90;;;;;;5081346;28;20123;-60
2022/03/03 03:19:21;;;;;;;0.00;0.00;;;0.20;99.90;;;;;;5081014;28;20519;-60
2022/03/03 03:21:47;;;;;;;0.00;0.00;;;0.10;99.90;;;;;;5081207;28;20044;-60
2022/03/03 03:24:13;;;;;;;0.00;0.00;;;0.10;99.90;;;;;;5080264;28;20051;-60
2022/03/03 03:26:39;;;;;;;0.00;0.00;;;0.40;99.90;;;;;;5077658;28;20434;-61
2022/03/03 03:29:05;;;;;;;0.00;0.00;;;0.00;99.90;;;;;;5070568;28;20040;-60
2022/03/03 03:31:31;;;;;;;0.00;0.00;;;0.00;99.90;;;;;;5081553;28;20451;-60
2022/03/03 03:33:56;;;;;;;0.00;0.00;;;0.00;99.90;;;;;;5078613;28;20048;-60
2022/03/03 03:36:22;;;;;;;0.00;0.00;;;0.00;99.90;;;;;;5080973;28;20478;-60
2022/03/03 03:38:48;;;;;;;0.00;0.00;;;0.00;99.90;;;;;;5080467;28;20040;-60
2022/03/03 03:41:14;;;;;;;0.00;0.00;;;0.00;99.90;;;;;;5080905;28;20072;-60
2022/03/03 03:43:39;;;;;;;0.00;0.00;;;0.10;99.90;;;;;;5079954;28;20044;-61
2022/03/03 03:46:05;;;;;;;0.00;0.00;;;0.10;99.90;;;;;;5080692;28;20197;-60
2022/03/03 03:48:31;;;;;;;0.00;0.00;;;0.10;99.90;;;;;;5080328;28;20322;-60
2022/03/03 03:50:57;;;;;;;0.00;0.00;;;0.10;99.90;;;;;;5079484;28;20087;-60
2022/03/03 03:53:23;;;;;;;0.00;0.00;;;0.10;99.90;;;;;;5080918;28;20075;-61
2022/03/03 03:55:50;;;;;;;0.00;0.00;;;0.10;99.90;;;;;;5079944;28;20054;-62
2022/03/03 03:58:15;;;;;;;0.00;0.00;;;0.10;99.90;;;;;;5079800;28;20043;-60
2022/03/03 04:00:41;;;;;;;0.00;0.00;;;0.10;99.90;;;;;;5079222;28;20122;-60
2022/03/03 04:03:07;;;;;;;0.00;0.00;;;0.10;99.90;;;;;;5081070;28;20040;-60
2022/03/03 04:05:32;;;;;;;0.00;0.00;;;0.10;99.90;;;;;;5079304;28;20717;-60
2022/03/03 04:07:58;;;;;;;0.00;0.00;;;0.10;99.90;;;;;;5078904;28;20100;-60
2022/03/03 04:10:24;;;;;;;0.00;0.00;;;0.00;99.90;;;;;;5079224;28;20407;-62
2022/03/03 04:12:50;;;;;;;0.00;0.00;;;0.00;99.90;;;;;;5080262;28;20155;-60
2022/03/03 04:15:15;;;;;;;0.00;0.00;;;0.00;99.90;;;;;;5080311;28;20085;-60
2022/03/03 04:17:42;;;;;;;0.00;0.00;;;0.00;99.90;;;;;;5080460;28;20028;-61
2022/03/03 04:20:09;;;;;;;0.00;0.00;;;-0.10;99.90;;;;;;5078812;28;20052;-60
2022/03/03 04:22:35;;;;;;;0.00;0.00;;;-0.10;99.90;;;;;;5080767;28;20563;-60
2022/03/03 04:25:01;;;;;;;0.00;0.00;;;-0.10;99.90;;;;;;5079710;28;20043;-60
2022/03/03 04:27:26;;;;;;;0.00;0.00;;;0.80;99.90;;;;;;5074119;28;20036;-61
2022/03/03 04:29:52;;;;;;;0.00;0.00;;;-0.10;99.90;;;;;;5073639;28;20187;-60
2022/03/03 04:32:18;;;;;;;0.00;0.00;;;-0.20;99.90;;;;;;5080590;28;20048;-61
2022/03/03 04:34:44;;;;;;;0.00;0.00;;;-0.10;99.90;;;;;;5079226;28;20278;-60
2022/03/03 04:37:10;;;;;;;0.00;0.00;;;-0.10;99.90;;;;;;5079922;28;20236;-60
2022/03/03 04:39:36;;;;;;;0.00;0.00;;;1.30;99.90;;;;;;5079232;28;20471;-60
2022/03/03 04:42:02;;;;;;;0.00;0.00;;;-0.10;99.90;;;;;;5078300;28;20040;-60
2022/03/03 04:44:28;;;;;;;0.00;0.00;;;-0.10;99.90;;;;;;5080451;28;20044;-60
2022/03/03 04:46:54;;;;;;;0.00;0.00;;;-0.20;99.90;;;;;;5077940;28;20055;-60
2022/03/03 04:49:19;;;;;;;0.00;0.00;;;0.70;99.90;;;;;;5079368;28;20085;-60
2022/03/03 04:51:45;;;;;;;0.00;0.00;;;-0.20;99.90;;;;;;5079676;28;20538;-61
2022/03/03 04:54:11;;;;;;;0.00;0.00;;;-0.20;99.90;;;;;;5080230;28;20598;-60
2022/03/03 04:56:38;;;;;;;0.00;0.00;;;-0.10;99.90;;;;;;5079930;28;20072;-60
2022/03/03 04:59:05;;;;;;;0.00;0.00;;;-0.10;99.90;;;;;;5079608;28;20390;-60
2022/03/03 05:01:31;;;;;;;0.00;0.00;;;-0.20;99.90;;;;;;5080329;28;20047;-62
2022/03/03 05:03:56;;;;;;;0.00;0.00;;;-0.20;99.90;;;;;;5077370;28;20475;-60
2022/03/03 05:06:22;;;;;;;0.00;0.00;;;-0.20;99.90;;;;;;5079093;28;20089;-60
2022/03/03 05:08:48;;;;;;;0.00;0.00;;;-0.20;99.90;;;;;;5078791;28;20043;-60
2022/03/03 05:11:14;;;;;;;0.00;0.00;;;-0.30;99.90;;;;;;5079727;28;20099;-60
2022/03/03 05:13:40;;;;;;;0.00;0.00;;;-0.40;99.90;;;;;;5080133;28;20071;-61
2022/03/03 05:16:05;;;;;;;0.00;0.00;;;-0.30;99.90;;;;;;5079380;28;20044;-60
2022/03/03 05:18:31;;;;;;;0.00;0.00;;;-0.40;99.90;;;;;;5079213;28;20051;-61
2022/03/03 05:20:57;;;;;;;0.00;0.00;;;-0.40;99.90;;;;;;5079231;28;20437;-60
2022/03/03 05:23:23;;;;;;;0.00;0.00;;;-0.40;99.90;;;;;;5079704;28;20052;-60
2022/03/03 05:25:49;;;;;;;0.00;0.00;;;-0.40;99.90;;;;;;5078695;28;20036;-60
2022/03/03 05:28:15;;;;;;;0.00;0.00;;;-0.40;99.90;;;;;;5067502;28;20049;-60
2022/03/03 05:30:41;;;;;;;0.35;0.35;;;-0.40;99.90;;;;;;5079833;28;20078;-61
2022/03/03 05:33:07;;;;;;;0.00;0.00;;;-0.40;99.90;;;;;;5078377;28;20044;-60
2022/03/03 05:35:32;;;;;;;0.00;0.00;;;-0.40;99.90;;;;;;5079156;28;20135;-60
2022/03/03 05:37:58;;;;;;;0.00;0.00;;;-0.50;99.90;;;;;;5079300;28;20048;-60
2022/03/03 05:40:24;;;;;;;0.00;0.00;;;-0.50;99.90;;;;;;5080077;28;20044;-60
2022/03/03 05:42:50;;;;;;;0.00;0.00;;;-0.40;99.90;;;;;;5079700;28;20093;-60
2022/03/03 05:45:15;;;;;;;0.00;0.00;;;-0.50;99.90;;;;;;5079929;28;20083;-61
2022/03/03 05:47:41;;;;;;;0.00;0.00;;;-0.40;99.90;;;;;;5079104;28;20131;-61
2022/03/03 05:50:08;;;;;;;0.00;0.00;;;-0.50;99.90;;;;;;5079701;28;20052;-61
2022/03/03 05:52:33;;;;;;;0.00;0.00;;;-0.50;99.90;;;;;;5080334;28;20122;-60
2022/03/03 05:54:59;;;;;;;0.00;0.00;;;-0.50;99.90;;;;;;5081600;28;20381;-60
2022/03/03 05:57:34;;;;;;;0.00;0.00;;;-0.50;99.90;;;;;;5082643;28;20421;-60
2022/03/03 06:00:08;;;;;;;0.00;0.00;;;-0.50;99.90;;;;;;5082408;28;20481;-60
2022/03/03 06:02:34;;;;;;;0.00;0.00;;;-0.60;99.90;;;;;;5082153;28;20533;-60
2022/03/03 06:05:03;;;;;;;0.00;0.00;;;-0.60;99.90;;;;;;5081518;28;20097;-60
2022/03/03 06:07:29;;;;;;;0.00;0.00;;;-0.50;99.90;;;;;;5081928;28;20080;-60
2022/03/03 06:09:56;;;;;;;0.00;0.00;;;-0.50;99.90;;;;;;5082439;28;20488;-60
2022/03/03 06:12:37;;;;;;;0.00;0.00;;;-0.50;99.90;;;;;;5083121;28;20047;-61
2022/03/03 06:15:04;;;;;;;0.00;0.00;;;-0.50;99.90;;;;;;5082124;28;20040;-60
2022/03/03 06:17:31;;;;;;;0.00;0.00;;;-0.50;99.90;;;;;;5081149;28;20483;-61
2022/03/03 06:20:00;;;;;;;0.00;0.00;;;-0.50;99.90;;;;;;5081780;28;20451;-60
2022/03/03 06:22:26;;;;;;;0.00;0.00;;;0.00;99.90;;;;;;5082872;28;20036;-60
2022/03/03 06:24:53;;;;;;;0.00;0.00;;;-0.50;99.90;;;;;;5082404;28;20040;-63
2022/03/03 06:27:19;;;;;;;0.00;0.00;;;-0.50;99.90;;;;;;5077557;28;20043;-61
2022/03/03 06:29:45;;;;;;;0.00;0.00;;;-0.50;99.90;;;;;;5074784;28;20048;-60
2022/03/03 06:32:11;;;;;;;0.10;0.10;;;-0.50;99.90;;;;;;5082432;28;20563;-61
2022/03/03 06:34:37;;;;;;;0.00;0.00;;;-0.50;99.90;;;;;;5082098;28;20059;-60
2022/03/03 06:37:04;;;;;;;0.00;0.00;;;-0.50;99.90;;;;;;5081604;28;20024;-60
2022/03/03 06:39:29;;;;;;;0.00;0.00;;;-0.50;99.90;;;;;;5082150;28;20048;-60
2022/03/03 06:41:55;;;;;;;0.00;0.00;;;-0.50;99.90;;;;;;5081121;28;20039;-60
2022/03/03 06:44:21;;;;;;;0.00;0.00;;;-0.50;99.90;;;;;;5082289;28;20047;-60
2022/03/03 06:46:47;;;;;;;0.00;0.00;;;-0.50;99.90;;;;;;5081700;28;20564;-60
2022/03/03 06:49:13;;;;;;;0.00;0.00;;;-0.50;99.90;;;;;;5080193;28;20046;-61
2022/03/03 06:51:41;;;;;;;0.00;0.00;;;-0.50;99.90;;;;;;5082072;28;20068;-60
2022/03/03 06:54:12;;;;;;;0.00;0.00;;;-0.50;99.90;;;;;;5081242;28;20067;-61
2022/03/03 06:56:52;;;;;;;0.00;0.00;;;-0.40;99.90;;;;;;5082602;28;20410;-60
2022/03/03 06:59:33;;;;;;;0.00;0.00;;;-0.40;99.90;;;;;;5081885;28;20044;-60
2022/03/03 07:02:00;;;;;;;0.00;0.00;;;-0.40;99.90;;;;;;5081501;28;20541;-60
2022/03/03 07:04:28;;;;;;;0.00;0.00;;;-0.40;99.90;;;;;;5080043;28;20032;-61
2022/03/03 07:06:54;;;;;;;0.00;0.00;;;-0.30;99.90;;;;;;5081407;28;20051;-61
2022/03/03 07:09:20;;;;;;;0.00;0.00;;;-0.30;99.90;;;;;;5082030;28;20055;-61
2022/03/03 07:11:46;;;;;;;0.00;0.00;;;-0.30;99.90;;;;;;5063026;28;20048;-61
2022/03/03 07:14:12;;;;;;;0.00;0.00;;;-0.20;99.90;;;;;;5081991;28;20040;-61
2022/03/03 07:16:42;;;;;;;0.13;0.10;;;-0.20;99.90;;;;;;5081584;28;20368;-61
2022/03/03 07:19:21;;;;;;;0.00;0.00;;;-0.10;99.90;;;;;;5081104;28;20751;-61
2022/03/03 07:22:09;;;;;;;0.00;0.00;;;-0.10;99.90;;;;;;5081162;28;20036;-61
2022/03/03 07:24:45;;;;;;;0.00;0.00;;;0.00;99.90;;;;;;5082065;28;20686;-61
2022/03/03 07:27:19;;;;;;;0.00;0.00;;;0.00;99.90;;;;;;5077515;28;20032;-61
2022/03/03 07:29:55;;;;;;;0.00;0.00;;;0.10;99.90;;;;;;5073594;28;20086;-64
2022/03/03 07:32:36;;;;;;;0.00;0.00;;;0.10;99.90;;;;;;5080290;28;20046;-60
2022/03/03 07:35:14;;;;;;;0.00;0.00;;;0.10;99.90;;;;;;5079067;28;20050;-60
2022/03/03 07:37:54;;;;;;;0.00;0.00;;;0.20;99.90;;;;;;5081350;28;20360;-61
2022/03/03 07:40:19;;;;;;;0.00;0.00;;;0.20;99.90;;;;;;5080235;28;20071;-60
2022/03/03 07:42:45;;;;;;;0.00;0.00;;;0.30;99.90;;;;;;5079789;28;20075;-61
2022/03/03 07:45:12;;;;;;;0.00;0.00;;;0.30;99.90;;;;;;5079985;28;20048;-61
2022/03/03 07:47:39;;;;;;;0.00;0.00;;;0.30;99.90;;;;;;5081456;28;20413;-61
2022/03/03 07:50:07;;;;;;;0.00;0.00;;;0.40;99.90;;;;;;5079263;28;20097;-60
2022/03/03 07:52:34;;;;;;;0.10;0.10;;;0.40;99.90;;;;;;5081167;28;20054;-61
2022/03/03 07:55:00;;;;;;;0.00;0.00;;;0.50;99.90;;;;;;5080376;28;20083;-60
2022/03/03 07:57:37;;;;;;;0.00;0.00;;;0.60;99.90;;;;;;5081011;28;20039;-61
2022/03/03 08:00:07;;;;;;;0.00;0.00;;;0.60;99.90;;;;;;5052569;28;20043;-60
2022/03/03 08:02:33;;;;;;;0.00;0.00;;;0.70;99.90;;;;;;5049616;28;20055;-60
2022/03/03 08:05:05;;;;;;;0.00;0.00;;;0.80;99.90;;;;;;5050594;28;20040;-60
2022/03/03 08:07:39;;;;;;;0.00;0.00;;;0.90;99.90;;;;;;5053061;28;20032;-60
2022/03/03 08:10:07;;;;;;;0.00;0.00;;;0.90;99.90;;;;;;5060614;28;20091;-60
2022/03/03 08:12:33;;;;;;;0.00;0.00;;;1.10;99.90;;;;;;5060714;28;20053;-60
2022/03/03 08:14:59;;;;;;;0.00;0.00;;;1.10;99.90;;;;;;5056456;28;20041;-60
2022/03/03 08:17:25;;;;;;;0.00;0.00;;;1.20;99.90;;;;;;5048503;28;20074;-60
2022/03/03 08:19:55;;;;;;;0.00;0.00;;;1.20;99.90;;;;;;5046164;28;20036;-60
2022/03/03 08:22:24;;;;;;;0.10;0.05;;;1.30;99.90;;;;;;5060408;28;20101;-60
2022/03/03 08:24:53;;;;;;;0.00;0.00;;;1.30;99.90;;;;;;5059227;28;20399;-61
2022/03/03 08:27:20;;;;;;;0.00;0.00;;;1.40;99.90;;;;;;5064267;28;20043;-60
2022/03/03 08:29:46;;;;;;;0.00;0.00;;;1.50;99.90;;;;;;5056569;28;20044;-61
2022/03/03 08:32:16;;;;;;;0.00;0.00;;;1.50;99.90;;;;;;5057099;28;20044;-61
2022/03/03 08:35:00;;;;;;;0.00;0.00;;;2.60;99.90;;;;;;5048271;28;20049;-62
2022/03/03 08:37:35;;;;;;;0.00;0.00;;;1.70;99.90;;;;;;5040033;28;20044;-59
2022/03/03 08:40:05;;;;;;;0.00;0.00;;;1.70;99.90;;;;;;5038730;28;20115;-60
2022/03/03 08:42:38;;;;;;;0.00;0.00;;;1.80;99.90;;;;;;5040555;28;21036;-59
2022/03/03 08:45:06;;;;;;;0.00;0.00;;;1.90;99.90;;;;;;5039313;28;20047;-60
2022/03/03 08:47:32;;;;;;;0.00;0.00;;;2.10;99.90;;;;;;5044190;28;20036;-60
2022/03/03 08:50:03;;;;;;;1.95;0.35;;;2.10;99.90;;;;;;5056906;28;20040;-60
2022/03/03 08:52:29;;;;;;;0.00;0.00;;;2.10;99.90;;;;;;5058606;28;20048;-60
2022/03/03 08:54:55;;;;;;;0.00;0.00;;;2.20;99.90;;;;;;5059379;28;20097;-60
2022/03/03 08:57:21;;;;;;;0.00;0.00;;;2.20;99.90;;;;;;5059498;28;20049;-60
2022/03/03 08:59:46;;;;;;;0.00;0.00;;;2.10;99.90;;;;;;5058635;28;20048;-60
2022/03/03 09:02:16;;;;;;;0.00;0.00;;;2.30;99.90;;;;;;5059657;28;20045;-61
2022/03/03 09:04:44;;;;;;;0.10;0.10;;;2.40;99.90;;;;;;5058524;28;20111;-61
2022/03/03 09:07:10;;;;;;;0.00;0.00;;;2.50;99.90;;;;;;5059766;28;20548;-62
2022/03/03 09:09:35;;;;;;;0.00;0.00;;;2.60;99.90;;;;;;5059264;28;20078;-60
2022/03/03 09:12:03;;;;;;;0.05;0.05;;;2.70;99.90;;;;;;5057718;28;20522;-60
2022/03/03 09:14:30;;;;;;;0.00;0.00;;;2.80;99.90;;;;;;5057641;28;20130;-60
2022/03/03 09:16:56;;;;;;;0.00;0.00;;;2.90;99.90;;;;;;5058980;28;20049;-59
2022/03/03 09:19:21;;;;;;;0.00;0.00;;;3.20;99.90;;;;;;5058055;28;20040;-59
2022/03/03 09:21:47;;;;;;;0.00;0.00;;;3.40;99.90;;;;;;5058962;28;20067;-59
2022/03/03 09:24:13;;;;;;;0.10;0.10;;;3.80;99.90;;;;;;5057951;28;20114;-60
2022/03/03 09:26:39;;;;;;;0.00;0.00;;;4.20;99.90;;;;;;5059379;28;20048;-60
2022/03/03 09:29:05;;;;;;;0.08;0.08;;;5.70;99.90;;;;;;5073077;28;20047;-59
2022/03/03 09:31:30;;;;;;;0.00;0.00;;;5.90;99.90;;;;;;5083571;28;21228;-59
2022/03/03 09:33:56;;;;;;;0.00;0.00;;;6.90;99.90;;;;;;5082302;28;20051;-60
2022/03/03 09:36:22;;;;;;;0.00;0.00;;;7.70;99.90;;;;;;5083557;28;20550;-61
2022/03/03 09:38:47;;;;;;;0.10;0.10;;;8.20;99.90;;;;;;5073880;28;20408;-60
2022/03/03 09:41:13;;;;;;;0.20;0.20;;;8.40;99.90;;;;;;5061568;28;20053;-60
2022/03/03 09:43:43;;;;;;;0.00;0.00;;;8.90;99.90;;;;;;5066877;28;20151;-60
2022/03/03 09:46:10;;;;;;;0.00;0.00;;;10.20;99.90;;;;;;5083400;28;20111;-61
2022/03/03 09:48:36;;;;;;;0.00;0.00;;;9.70;99.90;;;;;;5082307;28;20036;-61
2022/03/03 09:51:02;;;;;;;0.00;0.00;;;10.00;99.90;;;;;;5082764;28;20126;-59
2022/03/03 09:53:27;;;;;;;0.00;0.00;;;10.20;99.90;;;;;;5071919;28;20430;-62
2022/03/03 09:55:53;;;;;;;0.43;0.28;;;10.80;99.90;;;;;;5041923;28;20049;-60
2022/03/03 09:58:20;;;;;;;0.00;0.00;;;10.50;99.90;;;;;;5041514;28;20048;-60
2022/03/03 10:00:46;;;;;;;0.15;0.15;;;10.70;99.90;;;;;;5040040;28;20136;-60
2022/03/03 10:03:17;;;;;;;0.00;0.00;;;11.10;99.90;;;;;;5041790;28;20040;-61
2022/03/03 10:05:49;;;;;;;0.10;0.10;;;11.70;99.90;;;;;;5041023;28;20544;-60
2022/03/03 10:08:17;;;;;;;0.10;0.10;;;12.00;99.90;;;;;;5041806;28;20107;-60
2022/03/03 10:10:50;;;;;;;0.30;0.05;;;12.50;99.90;;;;;;5041872;28;20140;-61
2022/03/03 10:13:17;;;;;;;0.00;0.00;;;12.80;99.90;;;;;;5040885;28;20056;-61
2022/03/03 10:15:51;;;;;;;0.43;0.22;;;12.50;99.90;;;;;;5042029;28;20040;-60
2022/03/03 10:18:18;;;;;;;0.00;0.00;;;13.00;99.90;;;;;;5041380;28;20041;-60
2022/03/03 10:20:54;;;;;;;0.00;0.00;;;13.10;99.90;;;;;;5041692;28;20613;-60
2022/03/03 10:23:33;;;;;;;0.30;0.30;;;12.50;99.90;;;;;;5042197;28;20460;-61
2022/03/03 10:26:01;;;;;;;0.00;0.00;;;12.50;99.90;;;;;;5041701;28;20048;-60
2022/03/03 10:28:30;;;;;;;0.00;0.00;;;12.50;99.90;;;;;;5069284;28;20672;-60
2022/03/03 10:31:00;;;;;;;0.00;0.00;;;11.90;99.90;;;;;;5080668;28;20128;-61
2022/03/03 10:33:29;;;;;;;0.00;0.00;;;11.90;99.90;;;;;;5079336;28;20054;-60
2022/03/03 10:36:09;;;;;;;0.00;0.00;;;11.50;99.90;;;;;;5081770;28;20079;-61
2022/03/03 10:38:55;;;;;;;0.08;0.05;;;11.30;99.90;;;;;;5082181;28;20101;-61
2022/03/03 10:41:36;;;;;;;0.45;0.43;;;11.30;99.90;;;;;;5081678;28;20044;-60
2022/03/03 10:44:05;;;;;;;0.00;0.00;;;11.30;99.90;;;;;;5081518;28;20040;-60
2022/03/03 10:46:32;;;;;;;0.00;0.00;;;11.30;99.90;;;;;;5062738;28;20047;-60
2022/03/03 10:48:58;;;;;;;0.10;0.10;;;11.70;99.90;;;;;;5080995;28;20540;-60
2022/03/03 10:51:24;;;;;;;0.10;0.10;;;10.90;99.90;;;;;;5081824;28;20119;-60
2022/03/03 10:54:03;;;;;;;0.45;0.45;;;10.80;99.90;;;;;;5081201;28;20036;-62
2022/03/03 10:56:29;;;;;;;0.00;0.00;;;10.90;99.90;;;;;;5081534;28;20185;-61
2022/03/03 10:59:00;;;;;;;0.00;0.00;;;11.00;99.90;;;;;;5081042;28;20655;-60
2022/03/03 11:01:28;;;;;;;0.08;0.00;;;10.50;99.90;;;;;;5081559;28;20086;-61
2022/03/03 11:03:55;;;;;;;0.00;0.00;;;10.20;99.90;;;;;;5054883;28;20040;-61
2022/03/03 11:06:24;;;;;;;0.00;0.00;;;10.40;99.90;;;;;;5053681;28;20189;-62
2022/03/03 11:08:53;;;;;;;0.00;0.00;;;10.50;99.90;;;;;;5060470;28;20051;-60
2022/03/03 11:11:20;;;;;;;0.15;0.15;;;10.90;99.90;;;;;;5060930;28;20052;-61
2022/03/03 11:13:48;;;;;;;0.00;0.00;;;10.80;99.90;;;;;;5060241;28;20654;-62
2022/03/03 11:16:18;;;;;;;1.20;0.10;;;10.60;99.90;;;;;;5061446;28;20056;-61
2022/03/03 11:18:45;;;;;;;0.00;0.00;;;10.80;99.90;;;;;;5060252;28;20127;-61
2022/03/03 11:21:12;;;;;;;0.00;0.00;;;10.40;99.90;;;;;;5061201;28;20674;-61
2022/03/03 11:23:56;;;;;;;0.10;0.10;;;11.70;99.90;;;;;;5062012;28;20040;-61
2022/03/03 11:26:26;;;;;;;0.00;0.00;;;10.30;99.90;;;;;;5061315;28;20719;-61
2022/03/03 11:29:00;;;;;;;0.10;0.10;;;10.20;99.90;;;;;;5070456;28;20068;-60
2022/03/03 11:31:31;;;;;;;0.32;0.32;;;10.60;99.90;;;;;;5081694;28;20048;-60
2022/03/03 11:34:32;;;;;;;0.00;0.00;;;10.60;99.90;;;;;;5080386;28;20084;-60
2022/03/03 11:37:21;;;;;;;0.20;0.20;;;10.80;99.90;;;;;;5081490;28;20581;-61
2022/03/03 11:39:57;;;;;;;0.00;0.00;;;11.00;99.90;;;;;;5078792;28;20048;-60
2022/03/03 11:42:28;;;;;;;0.00;0.00;;;10.80;99.90;;;;;;5080267;28;20056;-60
2022/03/03 11:44:57;;;;;;;0.00;0.00;;;10.90;99.90;;;;;;5080910;28;20128;-61
2022/03/03 11:47:32;;;;;;;0.00;0.00;;;10.90;99.90;;;;;;5079827;28;20040;-60
2022/03/03 11:49:58;;;;;;;0.00;0.00;;;11.10;99.90;;;;;;5080137;28;20177;-61
2022/03/03 11:52:24;;;;;;;0.17;0.17;;;10.90;99.90;;;;;;5079692;28;20127;-59
2022/03/03 11:54:57;;;;;;;0.10;0.10;;;10.90;99.90;;;;;;5080055;28;20542;-59
2022/03/03 11:57:28;;;;;;;0.35;0.20;;;11.10;99.90;;;;;;5081062;28;20040;-58
2022/03/03 12:00:03;;;;;;;0.00;0.00;;;11.20;99.90;;;;;;5080397;28;20390;-60
2022/03/03 12:02:31;;;;;;;1.42;0.15;;;11.30;99.90;;;;;;5079838;28;20050;-59
2022/03/03 12:05:28;;;;;;;0.15;0.15;;;11.10;99.90;;;;;;5078938;28;20051;-59
2022/03/03 12:07:58;;;;;;;0.65;0.20;;;11.00;99.90;;;;;;5075965;28;20052;-59
2022/03/03 12:10:24;;;;;;;0.20;0.20;;;10.90;99.90;;;;;;5080675;28;20102;-59
2022/03/03 12:12:50;;;;;;;0.00;0.00;;;11.30;99.90;;;;;;5080277;28;20072;-60
2022/03/03 12:15:15;;;;;;;0.08;0.08;;;11.10;99.90;;;;;;5080356;28;20043;-59
2022/03/03 12:17:58;;;;;;;0.30;0.30;;;11.40;99.90;;;;;;5079169;28;20659;-59
2022/03/03 12:20:24;;;;;;;0.10;0.10;;;11.20;99.90;;;;;;5080613;28;20849;-59
2022/03/03 12:23:07;;;;;;;0.00;0.00;;;11.40;99.90;;;;;;5079166;28;20076;-61
2022/03/03 12:25:51;;;;;;;0.00;0.00;;;11.70;99.90;;;;;;5080439;28;20056;-62
2022/03/03 12:28:33;;;;;;;0.00;0.00;;;11.50;99.90;;;;;;5067955;28;20260;-62
2022/03/03 12:31:01;;;;;;;0.10;0.10;;;11.50;99.90;;;;;;5080153;28;20398;-58
2022/03/03 12:33:29;;;;;;;0.25;0.25;;;11.20;99.90;;;;;;5079994;28;20054;-61
2022/03/03 12:36:02;;;;;;;1.25;0.10;;;11.20;99.90;;;;;;5079837;28;20453;-61
2022/03/03 12:38:28;;;;;;;0.00;0.00;;;11.30;99.90;;;;;;5080356;28;20047;-62
2022/03/03 12:40:54;;;;;;;0.45;0.40;;;11.10;99.90;;;;;;5080007;28;20039;-62
2022/03/03 12:43:21;;;;;;;0.13;0.13;;;11.00;99.90;;;;;;5080117;28;20040;-62
2022/03/03 12:45:48;;;;;;;0.10;0.10;;;11.20;99.90;;;;;;5079673;28;20606;-62
2022/03/03 12:48:25;;;;;;;0.00;0.00;;;10.90;99.90;;;;;;5080064;28;20040;-62
2022/03/03 12:50:51;;;;;;;0.08;0.08;;;10.90;99.90;;;;;;5080028;28;20048;-61
2022/03/03 12:53:18;;;;;;;0.45;0.20;;;10.90;99.90;;;;;;5080073;28;20044;-62
2022/03/03 12:55:49;;;;;;;0.10;0.10;;;10.80;99.90;;;;;;5079069;28;20044;-62
2022/03/03 12:58:21;;;;;;;0.22;0.20;;;10.90;99.90;;;;;;5080396;28;20044;-62
2022/03/03 13:00:49;;;;;;;0.00;0.00;;;10.90;99.90;;;;;;5079752;28;20525;-61